sensor_id;sensor_type;location;lat;lon;timestamp;temperature;humidity
3086;DHT22;52812;48.960;9.108;2023-04-03T00:01:08;3.90;99.90
3086;DHT22;52812;48.960;9.108;2023-04-03T00:03:35;3.90;99.90
3086;DHT22;52812;48.960;9.108;2023-04-03T00:06:01;3.80;99.90
3086;DHT22;52812;48.960;9.108;2023-04-03T00:08:26;3.90;99.90
3086;DHT22;52812;48.960;9.108;2023-04-03T00:10:52;3.90;99.90
3086;DHT22;52812;48.960;9.108;2023-04-03T00:13:17;3.80;99.90
3086;DHT22;52812;48.960;9.108;2023-04-03T00:15:43;3.80;99.90
3086;DHT22;52812;48.960;9.108;2023-04-03T00:18:09;3.80;99.90
3086;DHT22;52812;48.960;9.108;2023-04-03T00:20:34;3.90;99.90
3086;DHT22;52812;48.960;9.108;2023-04-03T00:23:01;3.80;99.90
3086;DHT22;52812;48.960;9.108;2023-04-03T00:25:26;3.80;99.90
3086;DHT22;52812;48.960;9.108;2023-04-03T00:27:52;3.80;99.90
3086;DHT22;52812;48.960;9.108;2023-04-03T00:30:19;3.80;99.90
3086;DHT22;52812;48.960;9.108;2023-04-03T00:32:51;3.80;99.90
3086;DHT22;52812;48.960;9.108;2023-04-03T00:35:18;3.80;99.90
3086;DHT22;52812;48.960;9.108;2023-04-03T00:37:44;3.80;99.90
3086;DHT22;52812;48.960;9.108;2023-04-03T00:40:12;3.80;99.90
3086;DHT22;52812;48.960;9.108;2023-04-03T00:42:40;3.80;99.90
3086;DHT22;52812;48.960;9.108;2023-04-03T00:45:31;3.80;99.90
3086;DHT22;52812;48.960;9.108;2023-04-03T00:47:58;3.70;99.90
3086;DHT22;52812;48.960;9.108;2023-04-03T00:50:26;3.70;99.90
3086;DHT22;52812;48.960;9.108;2023-04-03T00:52:52;3.80;99.90
3086;DHT22;52812;48.960;9.108;2023-04-03T00:55:18;3.80;99.90
3086;DHT22;52812;48.960;9.108;2023-04-03T00:57:45;3.70;99.90
3086;DHT22;52812;48.960;9.108;2023-04-03T01:00:15;3.70;99.90
3086;DHT22;52812;48.960;9.108;2023-04-03T01:02:42;3.70;99.90
3086;DHT22;52812;48.960;9.108;2023-04-03T01:05:08;3.70;99.90
3086;DHT22;52812;48.960;9.108;2023-04-03T01:07:35;3.60;99.90
3086;DHT22;52812;48.960;9.108;2023-04-03T01:10:06;3.70;99.90
3086;DHT22;52812;48.960;9.108;2023-04-03T01:12:37;3.60;99.90
3086;DHT22;52812;48.960;9.108;2023-04-03T01:17:53;3.60;99.90
3086;DHT22;52812;48.960;9.108;2023-04-03T01:20:43;3.60;99.90
3086;DHT22;52812;48.960;9.108;2023-04-03T01:25:49;3.60;99.90
3086;DHT22;52812;48.960;9.108;2023-04-03T01:28:35;3.60;99.90
3086;DHT22;52812;48.960;9.108;2023-04-03T01:33:29;3.50;99.90
3086;DHT22;52812;48.960;9.108;2023-04-03T01:35:55;3.50;99.90
3086;DHT22;52812;48.960;9.108;2023-04-03T01:38:21;3.50;99.90
3086;DHT22;52812;48.960;9.108;2023-04-03T01:40:46;3.50;99.90
3086;DHT22;52812;48.960;9.108;2023-04-03T01:43:12;3.50;99.90
3086;DHT22;52812;48.960;9.108;2023-04-03T01:45:37;3.60;99.90
3086;DHT22;52812;48.960;9.108;2023-04-03T01:48:03;3.60;99.90
3086;DHT22;52812;48.960;9.108;2023-04-03T01:50:29;3.60;99.90
3086;DHT22;52812;48.960;9.108;2023-04-03T01:52:55;3.60;99.90
3086;DHT22;52812;48.960;9.108;2023-04-03T01:55:20;3.60;99.90
3086;DHT22;52812;48.960;9.108;2023-04-03T01:57:46;3.60;99.90
3086;DHT22;52812;48.960;9.108;2023-04-03T02:00:12;3.60;99.90
3086;DHT22;52812;48.960;9.108;2023-04-03T02:02:38;3.60;99.90
3086;DHT22;52812;48.960;9.108;2023-04-03T02:05:04;3.60;99.90
3086;DHT22;52812;48.960;9.108;2023-04-03T02:07:29;3.60;99.90
3086;DHT22;52812;48.960;9.108;2023-04-03T02:09:55;3.70;99.90
3086;DHT22;52812;48.960;9.108;2023-04-03T02:12:20;3.70;99.90
3086;DHT22;52812;48.960;9.108;2023-04-03T02:14:46;3.70;99.90
3086;DHT22;52812;48.960;9.108;2023-04-03T02:17:12;3.70;99.90
3086;DHT22;52812;48.960;9.108;2023-04-03T02:19:37;3.70;99.90
3086;DHT22;52812;48.960;9.108;2023-04-03T02:22:04;3.70;99.90
3086;DHT22;52812;48.960;9.108;2023-04-03T02:24:29;3.70;99.90
3086;DHT22;52812;48.960;9.108;2023-04-03T02:26:55;3.70;99.90
3086;DHT22;52812;48.960;9.108;2023-04-03T02:29:21;3.70;99.90
3086;DHT22;52812;48.960;9.108;2023-04-03T02:31:46;3.70;99.90
3086;DHT22;52812;48.960;9.108;2023-04-03T02:34:12;3.70;99.90
3086;DHT22;52812;48.960;9.108;2023-04-03T02:36:37;3.80;99.90
3086;DHT22;52812;48.960;9.108;2023-04-03T02:39:03;3.80;99.90
3086;DHT22;52812;48.960;9.108;2023-04-03T02:41:29;3.80;99.90
3086;DHT22;52812;48.960;9.108;2023-04-03T02:44:04;3.80;99.90
3086;DHT22;52812;48.960;9.108;2023-04-03T02:46:31;3.80;99.90
3086;DHT22;52812;48.960;9.108;2023-04-03T02:48:56;3.80;99.90
3086;DHT22;52812;48.960;9.108;2023-04-03T02:51:22;3.80;99.90
3086;DHT22;52812;48.960;9.108;2023-04-03T02:53:48;3.80;99.90
3086;DHT22;52812;48.960;9.108;2023-04-03T02:56:15;3.80;99.90
3086;DHT22;52812;48.960;9.108;2023-04-03T02:58:40;3.80;99.90
3086;DHT22;52812;48.960;9.108;2023-04-03T03:01:06;3.80;99.90
3086;DHT22;52812;48.960;9.108;2023-04-03T03:03:32;3.80;99.90
3086;DHT22;52812;48.960;9.108;2023-04-03T03:06:05;3.80;99.90
3086;DHT22;52812;48.960;9.108;2023-04-03T03:08:32;3.80;99.90
3086;DHT22;52812;48.960;9.108;2023-04-03T03:10:58;3.70;99.90
3086;DHT22;52812;48.960;9.108;2023-04-03T03:13:23;3.80;99.90
3086;DHT22;52812;48.960;9.108;2023-04-03T03:15:49;3.70;99.90
3086;DHT22;52812;48.960;9.108;2023-04-03T03:18:14;3.80;99.90
3086;DHT22;52812;48.960;9.108;2023-04-03T03:20:40;3.70;99.90
3086;DHT22;52812;48.960;9.108;2023-04-03T03:23:06;3.70;99.90
3086;DHT22;52812;48.960;9.108;2023-04-03T03:25:31;3.60;99.90
3086;DHT22;52812;48.960;9.108;2023-04-03T03:27:57;3.60;99.90
3086;DHT22;52812;48.960;9.108;2023-04-03T03:30:22;3.60;99.90
3086;DHT22;52812;48.960;9.108;2023-04-03T03:32:48;3.60;99.90
3086;DHT22;52812;48.960;9.108;2023-04-03T03:35:14;3.60;99.90
3086;DHT22;52812;48.960;9.108;2023-04-03T03:37:39;3.60;99.90
3086;DHT22;52812;48.960;9.108;2023-04-03T03:40:05;3.60;99.90
3086;DHT22;52812;48.960;9.108;2023-04-03T03:42:31;3.60;99.90
3086;DHT22;52812;48.960;9.108;2023-04-03T03:44:57;3.70;99.90
3086;DHT22;52812;48.960;9.108;2023-04-03T03:47:22;3.60;99.90
3086;DHT22;52812;48.960;9.108;2023-04-03T03:49:48;3.60;99.90
3086;DHT22;52812;48.960;9.108;2023-04-03T03:52:13;3.60;99.90
3086;DHT22;52812;48.960;9.108;2023-04-03T03:54:39;3.60;99.90
3086;DHT22;52812;48.960;9.108;2023-04-03T03:57:05;3.70;99.90
3086;DHT22;52812;48.960;9.108;2023-04-03T03:59:30;3.70;99.90
3086;DHT22;52812;48.960;9.108;2023-04-03T04:01:56;3.60;99.90
3086;DHT22;52812;48.960;9.108;2023-04-03T04:04:22;3.60;99.90
3086;DHT22;52812;48.960;9.108;2023-04-03T04:06:47;3.60;99.90
3086;DHT22;52812;48.960;9.108;2023-04-03T04:09:13;3.60;99.90
3086;DHT22;52812;48.960;9.108;2023-04-03T04:11:38;3.60;99.90
3086;DHT22;52812;48.960;9.108;2023-04-03T04:14:06;3.50;99.90
3086;DHT22;52812;48.960;9.108;2023-04-03T04:16:31;3.60;99.90
3086;DHT22;52812;48.960;9.108;2023-04-03T04:18:57;3.50;99.90
3086;DHT22;52812;48.960;9.108;2023-04-03T04:21:22;3.50;99.90
3086;DHT22;52812;48.960;9.108;2023-04-03T04:23:48;3.50;99.90
3086;DHT22;52812;48.960;9.108;2023-04-03T04:26:13;3.50;99.90
3086;DHT22;52812;48.960;9.108;2023-04-03T04:28:39;3.50;99.90
3086;DHT22;52812;48.960;9.108;2023-04-03T04:31:05;3.40;99.90
3086;DHT22;52812;48.960;9.108;2023-04-03T04:33:30;3.40;99.90
3086;DHT22;52812;48.960;9.108;2023-04-03T04:35:56;3.30;99.90
3086;DHT22;52812;48.960;9.108;2023-04-03T04:38:21;3.30;99.90
3086;DHT22;52812;48.960;9.108;2023-04-03T04:40:48;3.30;99.90
3086;DHT22;52812;48.960;9.108;2023-04-03T04:43:14;3.30;99.90
3086;DHT22;52812;48.960;9.108;2023-04-03T04:45:40;3.40;99.90
3086;DHT22;52812;48.960;9.108;2023-04-03T04:48:06;3.30;99.90
3086;DHT22;52812;48.960;9.108;2023-04-03T04:50:31;3.40;99.90
3086;DHT22;52812;48.960;9.108;2023-04-03T04:52:57;3.40;99.90
3086;DHT22;52812;48.960;9.108;2023-04-03T04:55:22;3.30;99.90
3086;DHT22;52812;48.960;9.108;2023-04-03T04:57:48;3.30;99.90
3086;DHT22;52812;48.960;9.108;2023-04-03T05:00:14;3.20;99.90
3086;DHT22;52812;48.960;9.108;2023-04-03T05:02:40;3.20;99.90
3086;DHT22;52812;48.960;9.108;2023-04-03T05:05:06;3.20;99.90
3086;DHT22;52812;48.960;9.108;2023-04-03T05:07:31;3.20;99.90
3086;DHT22;52812;48.960;9.108;2023-04-03T05:09:57;3.20;99.90
3086;DHT22;52812;48.960;9.108;2023-04-03T05:12:23;3.20;99.90
3086;DHT22;52812;48.960;9.108;2023-04-03T05:14:49;3.10;99.90
3086;DHT22;52812;48.960;9.108;2023-04-03T05:17:14;3.10;99.90
3086;DHT22;52812;48.960;9.108;2023-04-03T05:19:40;3.10;99.90
3086;DHT22;52812;48.960;9.108;2023-04-03T05:22:06;3.10;99.90
3086;DHT22;52812;48.960;9.108;2023-04-03T05:24:31;3.10;99.90
3086;DHT22;52812;48.960;9.108;2023-04-03T05:26:57;3.20;99.90
3086;DHT22;52812;48.960;9.108;2023-04-03T05:29:23;3.20;99.90
3086;DHT22;52812;48.960;9.108;2023-04-03T05:31:51;3.20;99.90
3086;DHT22;52812;48.960;9.108;2023-04-03T05:34:17;3.20;99.90
3086;DHT22;52812;48.960;9.108;2023-04-03T05:36:42;3.20;99.90
3086;DHT22;52812;48.960;9.108;2023-04-03T05:39:08;3.20;99.90
3086;DHT22;52812;48.960;9.108;2023-04-03T05:41:34;3.10;99.90
3086;DHT22;52812;48.960;9.108;2023-04-03T05:43:59;3.10;99.90
3086;DHT22;52812;48.960;9.108;2023-04-03T05:46:25;3.10;99.90
3086;DHT22;52812;48.960;9.108;2023-04-03T05:48:51;3.10;99.90
3086;DHT22;52812;48.960;9.108;2023-04-03T05:51:19;3.10;99.90
3086;DHT22;52812;48.960;9.108;2023-04-03T05:53:47;3.00;99.90
3086;DHT22;52812;48.960;9.108;2023-04-03T05:56:12;3.10;99.90
3086;DHT22;52812;48.960;9.108;2023-04-03T05:58:38;3.10;99.90
3086;DHT22;52812;48.960;9.108;2023-04-03T06:01:04;3.10;99.90
3086;DHT22;52812;48.960;9.108;2023-04-03T06:03:30;3.10;99.90
3086;DHT22;52812;48.960;9.108;2023-04-03T06:05:56;3.10;99.90
3086;DHT22;52812;48.960;9.108;2023-04-03T06:08:22;3.10;99.90
3086;DHT22;52812;48.960;9.108;2023-04-03T06:10:49;3.00;99.90
3086;DHT22;52812;48.960;9.108;2023-04-03T06:13:15;3.10;99.90
3086;DHT22;52812;48.960;9.108;2023-04-03T06:15:41;3.10;99.90
3086;DHT22;52812;48.960;9.108;2023-04-03T06:18:07;3.10;99.90
3086;DHT22;52812;48.960;9.108;2023-04-03T06:20:33;3.10;99.90
3086;DHT22;52812;48.960;9.108;2023-04-03T06:22:58;3.20;99.90
3086;DHT22;52812;48.960;9.108;2023-04-03T06:25:24;3.30;99.90
3086;DHT22;52812;48.960;9.108;2023-04-03T06:27:50;3.30;99.90
3086;DHT22;52812;48.960;9.108;2023-04-03T06:30:16;3.30;99.90
3086;DHT22;52812;48.960;9.108;2023-04-03T06:32:41;3.40;99.90
3086;DHT22;52812;48.960;9.108;2023-04-03T06:35:08;3.40;99.90
3086;DHT22;52812;48.960;9.108;2023-04-03T06:37:34;3.40;99.90
3086;DHT22;52812;48.960;9.108;2023-04-03T06:40:00;3.50;99.90
3086;DHT22;52812;48.960;9.108;2023-04-03T06:42:25;3.60;99.90
3086;DHT22;52812;48.960;9.108;2023-04-03T06:44:51;3.60;99.90
3086;DHT22;52812;48.960;9.108;2023-04-03T06:47:17;3.70;99.90
3086;DHT22;52812;48.960;9.108;2023-04-03T06:49:44;3.70;99.90
3086;DHT22;52812;48.960;9.108;2023-04-03T06:52:09;3.70;99.90
3086;DHT22;52812;48.960;9.108;2023-04-03T06:54:37;3.80;99.90
3086;DHT22;52812;48.960;9.108;2023-04-03T06:57:03;3.80;99.90
3086;DHT22;52812;48.960;9.108;2023-04-03T06:59:29;3.80;99.90
3086;DHT22;52812;48.960;9.108;2023-04-03T07:01:54;3.80;99.90
3086;DHT22;52812;48.960;9.108;2023-04-03T07:04:20;3.90;99.90
3086;DHT22;52812;48.960;9.108;2023-04-03T07:06:46;4.10;99.90
3086;DHT22;52812;48.960;9.108;2023-04-03T07:09:13;4.20;99.90
3086;DHT22;52812;48.960;9.108;2023-04-03T07:11:39;4.30;99.90
3086;DHT22;52812;48.960;9.108;2023-04-03T07:14:05;4.20;99.90
3086;DHT22;52812;48.960;9.108;2023-04-03T07:16:33;4.30;99.90
3086;DHT22;52812;48.960;9.108;2023-04-03T07:18:59;4.60;99.90
3086;DHT22;52812;48.960;9.108;2023-04-03T07:21:24;4.80;99.90
3086;DHT22;52812;48.960;9.108;2023-04-03T07:23:50;5.20;99.90
3086;DHT22;52812;48.960;9.108;2023-04-03T07:26:16;5.20;99.90
3086;DHT22;52812;48.960;9.108;2023-04-03T07:28:42;4.90;99.90
3086;DHT22;52812;48.960;9.108;2023-04-03T07:31:12;4.70;99.90
3086;DHT22;52812;48.960;9.108;2023-04-03T07:33:39;4.80;99.90
3086;DHT22;52812;48.960;9.108;2023-04-03T07:36:06;5.50;99.90
3086;DHT22;52812;48.960;9.108;2023-04-03T07:38:35;5.60;99.90
3086;DHT22;52812;48.960;9.108;2023-04-03T07:41:01;5.70;99.90
3086;DHT22;52812;48.960;9.108;2023-04-03T07:43:27;6.00;99.90
3086;DHT22;52812;48.960;9.108;2023-04-03T07:45:53;5.80;99.90
3086;DHT22;52812;48.960;9.108;2023-04-03T07:48:24;5.50;99.90
3086;DHT22;52812;48.960;9.108;2023-04-03T07:50:51;5.30;99.90
3086;DHT22;52812;48.960;9.108;2023-04-03T07:53:17;5.10;99.90
3086;DHT22;52812;48.960;9.108;2023-04-03T07:55:43;5.00;99.90
3086;DHT22;52812;48.960;9.108;2023-04-03T07:58:10;4.90;99.90
3086;DHT22;52812;48.960;9.108;2023-04-03T08:00:36;5.00;99.90
3086;DHT22;52812;48.960;9.108;2023-04-03T08:03:07;4.90;99.90
3086;DHT22;52812;48.960;9.108;2023-04-03T08:05:37;5.10;99.90
3086;DHT22;52812;48.960;9.108;2023-04-03T08:08:02;5.30;99.90
3086;DHT22;52812;48.960;9.108;2023-04-03T08:10:30;5.30;99.90
3086;DHT22;52812;48.960;9.108;2023-04-03T08:12:56;5.30;99.90
3086;DHT22;52812;48.960;9.108;2023-04-03T08:15:22;5.30;99.90
3086;DHT22;52812;48.960;9.108;2023-04-03T08:17:48;5.20;99.90
3086;DHT22;52812;48.960;9.108;2023-04-03T08:20:13;5.30;99.90
3086;DHT22;52812;48.960;9.108;2023-04-03T08:22:39;5.30;99.90
3086;DHT22;52812;48.960;9.108;2023-04-03T08:25:05;5.50;99.90
3086;DHT22;52812;48.960;9.108;2023-04-03T08:27:31;5.50;99.90
3086;DHT22;52812;48.960;9.108;2023-04-03T08:29:56;5.30;99.90
3086;DHT22;52812;48.960;9.108;2023-04-03T08:32:23;5.40;99.90
3086;DHT22;52812;48.960;9.108;2023-04-03T08:34:49;5.30;99.90
3086;DHT22;52812;48.960;9.108;2023-04-03T08:37:15;5.30;99.90
3086;DHT22;52812;48.960;9.108;2023-04-03T08:39:42;5.50;99.90
3086;DHT22;52812;48.960;9.108;2023-04-03T08:42:16;5.70;99.90
3086;DHT22;52812;48.960;9.108;2023-04-03T08:45:02;6.00;99.90
3086;DHT22;52812;48.960;9.108;2023-04-03T08:48:00;6.50;99.90
3086;DHT22;52812;48.960;9.108;2023-04-03T08:50:37;6.40;99.90
3086;DHT22;52812;48.960;9.108;2023-04-03T08:53:06;6.50;99.90
3086;DHT22;52812;48.960;9.108;2023-04-03T08:55:43;6.30;99.90
3086;DHT22;52812;48.960;9.108;2023-04-03T08:58:16;6.60;99.90
3086;DHT22;52812;48.960;9.108;2023-04-03T09:01:01;6.50;99.90
3086;DHT22;52812;48.960;9.108;2023-04-03T09:03:31;6.70;99.90
3086;DHT22;52812;48.960;9.108;2023-04-03T09:06:15;7.00;99.90
3086;DHT22;52812;48.960;9.108;2023-04-03T09:22:43;6.40;99.90
3086;DHT22;52812;48.960;9.108;2023-04-03T09:27:39;6.30;99.90
3086;DHT22;52812;48.960;9.108;2023-04-03T09:30:06;6.50;99.90
3086;DHT22;52812;48.960;9.108;2023-04-03T09:32:35;6.50;99.90
3086;DHT22;52812;48.960;9.108;2023-04-03T09:35:04;6.50;99.90
3086;DHT22;52812;48.960;9.108;2023-04-03T09:37:47;6.40;99.90
3086;DHT22;52812;48.960;9.108;2023-04-03T09:45:44;6.40;99.90
3086;DHT22;52812;48.960;9.108;2023-04-03T09:53:38;6.30;99.90
3086;DHT22;52812;48.960;9.108;2023-04-03T09:56:26;6.30;99.90
3086;DHT22;52812;48.960;9.108;2023-04-03T09:59:08;6.70;99.90
3086;DHT22;52812;48.960;9.108;2023-04-03T10:01:42;6.40;99.90
3086;DHT22;52812;48.960;9.108;2023-04-03T10:04:14;6.50;99.90
3086;DHT22;52812;48.960;9.108;2023-04-03T10:06:45;6.30;99.90
3086;DHT22;52812;48.960;9.108;2023-04-03T10:09:29;6.20;99.90
3086;DHT22;52812;48.960;9.108;2023-04-03T10:12:07;6.40;99.90
3086;DHT22;52812;48.960;9.108;2023-04-03T10:14:36;6.60;99.90
3086;DHT22;52812;48.960;9.108;2023-04-03T10:20:02;6.40;99.90
3086;DHT22;52812;48.960;9.108;2023-04-03T10:25:36;6.40;99.90
3086;DHT22;52812;48.960;9.108;2023-04-03T10:39:10;6.70;99.90
3086;DHT22;52812;48.960;9.108;2023-04-03T10:47:15;6.70;99.90
3086;DHT22;52812;48.960;9.108;2023-04-03T10:50:02;6.70;99.90
3086;DHT22;52812;48.960;9.108;2023-04-03T10:58:44;7.20;99.90
3086;DHT22;52812;48.960;9.108;2023-04-03T11:01:14;6.90;99.90
3086;DHT22;52812;48.960;9.108;2023-04-03T11:03:58;6.60;99.90
3086;DHT22;52812;48.960;9.108;2023-04-03T11:06:32;6.30;99.90
3086;DHT22;52812;48.960;9.108;2023-04-03T11:09:05;6.40;99.90
3086;DHT22;52812;48.960;9.108;2023-04-03T11:11:35;6.60;99.90
3086;DHT22;52812;48.960;9.108;2023-04-03T11:16:48;6.50;99.90
3086;DHT22;52812;48.960;9.108;2023-04-03T11:22:03;6.60;99.90
3086;DHT22;52812;48.960;9.108;2023-04-03T11:24:32;6.60;99.90
3086;DHT22;52812;48.960;9.108;2023-04-03T11:27:00;6.60;99.90
3086;DHT22;52812;48.960;9.108;2023-04-03T11:29:37;6.50;99.90
3086;DHT22;52812;48.960;9.108;2023-04-03T11:32:56;6.50;99.90
3086;DHT22;52812;48.960;9.108;2023-04-03T11:35:02;6.40;99.90
3086;DHT22;52812;48.960;9.108;2023-04-03T11:37:48;6.40;99.90
3086;DHT22;52812;48.960;9.108;2023-04-03T11:42:49;6.60;99.90
3086;DHT22;52812;48.960;9.108;2023-04-03T11:47:52;6.50;99.90
3086;DHT22;52812;48.960;9.108;2023-04-03T12:05:52;6.70;99.90
3086;DHT22;52812;48.960;9.108;2023-04-03T12:14:02;6.70;99.90
3086;DHT22;52812;48.960;9.108;2023-04-03T12:24:30;6.60;99.90
3086;DHT22;52812;48.960;9.108;2023-04-03T12:39:52;6.80;99.90
3086;DHT22;52812;48.960;9.108;2023-04-03T12:42:32;6.90;99.90
3086;DHT22;52812;48.960;9.108;2023-04-03T12:45:27;7.00;99.90
3086;DHT22;52812;48.960;9.108;2023-04-03T12:47:54;6.90;99.90
3086;DHT22;52812;48.960;9.108;2023-04-03T12:50:31;7.00;99.90
3086;DHT22;52812;48.960;9.108;2023-04-03T12:53:06;7.10;99.90
3086;DHT22;52812;48.960;9.108;2023-04-03T12:55:32;7.40;99.90
3086;DHT22;52812;48.960;9.108;2023-04-03T12:58:34;7.40;99.90
3086;DHT22;52812;48.960;9.108;2023-04-03T13:01:02;7.30;99.90
3086;DHT22;52812;48.960;9.108;2023-04-03T13:03:28;7.20;99.90
3086;DHT22;52812;48.960;9.108;2023-04-03T13:05:58;7.10;99.90
3086;DHT22;52812;48.960;9.108;2023-04-03T13:08:24;7.00;99.90
3086;DHT22;52812;48.960;9.108;2023-04-03T13:11:06;7.10;99.90
3086;DHT22;52812;48.960;9.108;2023-04-03T13:13:34;7.20;99.90
3086;DHT22;52812;48.960;9.108;2023-04-03T13:15:59;7.30;99.90
3086;DHT22;52812;48.960;9.108;2023-04-03T13:18:31;7.50;99.90
3086;DHT22;52812;48.960;9.108;2023-04-03T13:21:18;7.50;99.90
3086;DHT22;52812;48.960;9.108;2023-04-03T13:23:47;7.70;99.90
3086;DHT22;52812;48.960;9.108;2023-04-03T13:26:16;7.30;99.90
3086;DHT22;52812;48.960;9.108;2023-04-03T13:28:43;7.10;99.90
3086;DHT22;52812;48.960;9.108;2023-04-03T13:36:30;7.20;99.90
3086;DHT22;52812;48.960;9.108;2023-04-03T13:41:43;7.30;99.90
3086;DHT22;52812;48.960;9.108;2023-04-03T13:44:33;7.30;99.90
3086;DHT22;52812;48.960;9.108;2023-04-03T13:47:21;7.30;99.90
3086;DHT22;52812;48.960;9.108;2023-04-03T13:50:14;7.30;99.90
3086;DHT22;52812;48.960;9.108;2023-04-03T13:52:42;7.30;99.90
3086;DHT22;52812;48.960;9.108;2023-04-03T13:55:24;7.20;99.90
3086;DHT22;52812;48.960;9.108;2023-04-03T13:58:00;7.10;99.90
3086;DHT22;52812;48.960;9.108;2023-04-03T14:00:40;7.20;99.90
3086;DHT22;52812;48.960;9.108;2023-04-03T14:03:18;7.20;99.90
3086;DHT22;52812;48.960;9.108;2023-04-03T14:05:45;7.30;99.90
3086;DHT22;52812;48.960;9.108;2023-04-03T14:08:11;7.40;99.90
3086;DHT22;52812;48.960;9.108;2023-04-03T14:10:37;7.40;99.90
3086;DHT22;52812;48.960;9.108;2023-04-03T14:13:03;7.50;99.90
3086;DHT22;52812;48.960;9.108;2023-04-03T14:15:30;7.50;99.90
3086;DHT22;52812;48.960;9.108;2023-04-03T14:17:57;7.40;99.90
3086;DHT22;52812;48.960;9.108;2023-04-03T14:20:25;7.50;99.90
3086;DHT22;52812;48.960;9.108;2023-04-03T14:22:51;7.50;99.90
3086;DHT22;52812;48.960;9.108;2023-04-03T14:25:18;7.50;99.90
3086;DHT22;52812;48.960;9.108;2023-04-03T14:27:47;7.30;99.90
3086;DHT22;52812;48.960;9.108;2023-04-03T14:30:22;7.20;99.90
3086;DHT22;52812;48.960;9.108;2023-04-03T14:32:48;7.30;99.90
3086;DHT22;52812;48.960;9.108;2023-04-03T14:35:15;7.20;99.90
3086;DHT22;52812;48.960;9.108;2023-04-03T14:37:40;7.20;99.90
3086;DHT22;52812;48.960;9.108;2023-04-03T14:40:07;7.10;99.90
3086;DHT22;52812;48.960;9.108;2023-04-03T14:42:36;7.00;99.90
3086;DHT22;52812;48.960;9.108;2023-04-03T14:45:05;7.00;99.90
3086;DHT22;52812;48.960;9.108;2023-04-03T14:47:32;7.10;99.90
3086;DHT22;52812;48.960;9.108;2023-04-03T14:50:01;7.30;99.90
3086;DHT22;52812;48.960;9.108;2023-04-03T14:52:34;7.40;99.90
3086;DHT22;52812;48.960;9.108;2023-04-03T14:55:01;7.40;99.90
3086;DHT22;52812;48.960;9.108;2023-04-03T14:57:29;7.20;99.90
3086;DHT22;52812;48.960;9.108;2023-04-03T14:59:56;7.00;99.90
3086;DHT22;52812;48.960;9.108;2023-04-03T15:02:31;6.90;99.90
3086;DHT22;52812;48.960;9.108;2023-04-03T15:04:57;6.80;99.90
3086;DHT22;52812;48.960;9.108;2023-04-03T15:07:25;6.80;99.90
3086;DHT22;52812;48.960;9.108;2023-04-03T15:09:51;6.90;99.90
3086;DHT22;52812;48.960;9.108;2023-04-03T15:12:17;7.00;99.90
3086;DHT22;52812;48.960;9.108;2023-04-03T15:14:43;7.10;99.90
3086;DHT22;52812;48.960;9.108;2023-04-03T15:17:17;7.20;99.90
3086;DHT22;52812;48.960;9.108;2023-04-03T15:19:43;7.40;99.90
3086;DHT22;52812;48.960;9.108;2023-04-03T15:22:17;7.40;99.90
3086;DHT22;52812;48.960;9.108;2023-04-03T15:24:43;7.40;99.90
3086;DHT22;52812;48.960;9.108;2023-04-03T15:27:10;7.50;99.90
3086;DHT22;52812;48.960;9.108;2023-04-03T15:29:39;7.60;99.90
3086;DHT22;52812;48.960;9.108;2023-04-03T15:32:05;7.40;99.90
3086;DHT22;52812;48.960;9.108;2023-04-03T15:34:32;7.20;99.90
3086;DHT22;52812;48.960;9.108;2023-04-03T15:36:57;7.20;99.90
3086;DHT22;52812;48.960;9.108;2023-04-03T15:39:25;7.10;99.90
3086;DHT22;52812;48.960;9.108;2023-04-03T15:41:51;7.10;99.90
3086;DHT22;52812;48.960;9.108;2023-04-03T15:44:17;7.10;99.90
3086;DHT22;52812;48.960;9.108;2023-04-03T15:46:44;6.90;99.90
3086;DHT22;52812;48.960;9.108;2023-04-03T15:49:11;7.00;99.90
3086;DHT22;52812;48.960;9.108;2023-04-03T15:51:37;7.00;99.90
3086;DHT22;52812;48.960;9.108;2023-04-03T15:54:03;7.10;99.90
3086;DHT22;52812;48.960;9.108;2023-04-03T15:56:28;7.20;99.90
3086;DHT22;52812;48.960;9.108;2023-04-03T15:58:54;7.20;99.90
3086;DHT22;52812;48.960;9.108;2023-04-03T16:01:19;7.10;99.90
3086;DHT22;52812;48.960;9.108;2023-04-03T16:03:45;7.00;99.90
3086;DHT22;52812;48.960;9.108;2023-04-03T16:06:15;6.90;99.90
3086;DHT22;52812;48.960;9.108;2023-04-03T16:08:42;6.80;99.90
3086;DHT22;52812;48.960;9.108;2023-04-03T16:11:08;6.80;99.90
3086;DHT22;52812;48.960;9.108;2023-04-03T16:13:34;6.70;99.90
3086;DHT22;52812;48.960;9.108;2023-04-03T16:16:00;6.70;99.90
3086;DHT22;52812;48.960;9.108;2023-04-03T16:18:27;6.70;99.90
3086;DHT22;52812;48.960;9.108;2023-04-03T16:20:52;6.70;99.90
3086;DHT22;52812;48.960;9.108;2023-04-03T16:23:18;6.70;99.90
3086;DHT22;52812;48.960;9.108;2023-04-03T16:25:44;6.70;99.90
3086;DHT22;52812;48.960;9.108;2023-04-03T16:28:12;6.70;99.90
3086;DHT22;52812;48.960;9.108;2023-04-03T16:30:40;6.70;99.90
3086;DHT22;52812;48.960;9.108;2023-04-03T16:33:05;6.60;99.90
3086;DHT22;52812;48.960;9.108;2023-04-03T16:35:31;6.50;99.90
3086;DHT22;52812;48.960;9.108;2023-04-03T16:37:57;6.50;99.90
3086;DHT22;52812;48.960;9.108;2023-04-03T16:40:22;6.40;99.90
3086;DHT22;52812;48.960;9.108;2023-04-03T16:42:48;6.40;99.90
3086;DHT22;52812;48.960;9.108;2023-04-03T16:45:13;6.30;99.90
3086;DHT22;52812;48.960;9.108;2023-04-03T16:47:40;6.30;99.90
3086;DHT22;52812;48.960;9.108;2023-04-03T16:50:06;6.20;99.90
3086;DHT22;52812;48.960;9.108;2023-04-03T16:52:31;6.30;99.90
3086;DHT22;52812;48.960;9.108;2023-04-03T16:54:57;6.30;99.90
3086;DHT22;52812;48.960;9.108;2023-04-03T16:57:24;6.30;99.90
3086;DHT22;52812;48.960;9.108;2023-04-03T16:59:50;6.30;99.90
3086;DHT22;52812;48.960;9.108;2023-04-03T17:02:16;6.30;99.90
3086;DHT22;52812;48.960;9.108;2023-04-03T17:04:42;6.30;99.90
3086;DHT22;52812;48.960;9.108;2023-04-03T17:07:08;6.30;99.90
3086;DHT22;52812;48.960;9.108;2023-04-03T17:09:34;6.40;99.90
3086;DHT22;52812;48.960;9.108;2023-04-03T17:11:59;6.40;99.90
3086;DHT22;52812;48.960;9.108;2023-04-03T17:14:25;6.40;99.90
3086;DHT22;52812;48.960;9.108;2023-04-03T17:16:51;6.30;99.90
3086;DHT22;52812;48.960;9.108;2023-04-03T17:19:17;6.40;99.90
3086;DHT22;52812;48.960;9.108;2023-04-03T17:21:43;6.30;99.90
3086;DHT22;52812;48.960;9.108;2023-04-03T17:24:11;6.20;99.90
3086;DHT22;52812;48.960;9.108;2023-04-03T17:26:40;6.10;99.90
3086;DHT22;52812;48.960;9.108;2023-04-03T17:29:06;6.10;99.90
3086;DHT22;52812;48.960;9.108;2023-04-03T17:31:31;6.00;99.90
3086;DHT22;52812;48.960;9.108;2023-04-03T17:33:57;5.90;99.90
3086;DHT22;52812;48.960;9.108;2023-04-03T17:36:29;5.80;99.90
3086;DHT22;52812;48.960;9.108;2023-04-03T17:38:55;5.80;99.90
3086;DHT22;52812;48.960;9.108;2023-04-03T17:41:21;5.70;99.90
3086;DHT22;52812;48.960;9.108;2023-04-03T17:43:51;5.70;99.90
3086;DHT22;52812;48.960;9.108;2023-04-03T17:46:21;5.60;99.90
3086;DHT22;52812;48.960;9.108;2023-04-03T17:48:47;5.60;99.90
3086;DHT22;52812;48.960;9.108;2023-04-03T17:51:16;5.60;99.90
3086;DHT22;52812;48.960;9.108;2023-04-03T17:53:42;5.60;99.90
3086;DHT22;52812;48.960;9.108;2023-04-03T17:56:14;5.50;99.90
3086;DHT22;52812;48.960;9.108;2023-04-03T17:58:40;5.50;99.90
3086;DHT22;52812;48.960;9.108;2023-04-03T18:01:08;5.40;99.90
3086;DHT22;52812;48.960;9.108;2023-04-03T18:03:34;5.30;99.90
3086;DHT22;52812;48.960;9.108;2023-04-03T18:06:03;5.30;99.90
3086;DHT22;52812;48.960;9.108;2023-04-03T18:08:34;5.30;99.90
3086;DHT22;52812;48.960;9.108;2023-04-03T18:11:00;5.20;99.90
3086;DHT22;52812;48.960;9.108;2023-04-03T18:13:26;5.20;99.90